Main page
METAR-TAF:

METAR-TAF

Airports :

Oil platform

K13-a, Netherlands

latitude: 53-13-04N, longitude: 3-13-13E, elevation: 31 m

Current weather observation

The report was made 15 minutes ago, at 01:55 UTC
Wind 10 kt from the Southwest
Temperature 13°C
Humidity 100%
Pressure 1010 hPa

METAR: EHJR 190155Z AUTO 23010KT //// // ///////// 13/13 Q1010 RE// W13/H17

Time: 04:10 (02:10 UTC)


TAF: missing

Weather observations and forecasts of more than 4000 airports (METAR and TAF reports).

The available stations are represented by yellow and red dots on the map.

Hover mouse over dot to see the name of the station.

Then click to see weather observations and forecasts.

To change the map : click on the green buttons with a black cross to zoom in, on the green button with a dash to zoom out, or on the green arrows for adjacent maps.


METAR-TAF: